createdAt,value
2018-02-14T02:39:39.539Z,84.10
2018-02-14T02:42:05.707Z,84.60
2018-02-14T02:44:31.903Z,85.20
2018-02-14T06:38:50.467Z,84.30
2018-02-14T06:41:17.383Z,85.30
2018-02-14T06:43:43.919Z,85.00
2018-02-14T06:46:10.136Z,85.00
2018-02-14T06:48:36.297Z,84.90
2018-02-14T06:51:02.490Z,84.90
2018-02-14T06:53:28.845Z,84.70
2018-02-14T06:55:54.991Z,84.70
2018-02-14T06:58:21.144Z,84.90
2018-02-14T07:00:47.540Z,84.70
2018-02-14T07:03:13.711Z,84.40
2018-02-14T07:05:39.872Z,84.30
2018-02-14T07:08:06.819Z,84.50
2018-02-14T07:10:34.259Z,84.40
2018-02-14T07:13:00.792Z,83.90
2018-02-14T07:15:28.143Z,84.10
2018-02-14T07:17:54.347Z,83.50
2018-02-14T07:20:20.528Z,83.50
2018-02-14T07:22:47.497Z,83.70
2018-02-14T07:25:13.734Z,83.30
2018-02-14T07:27:39.947Z,82.90
2018-02-14T07:32:28.999Z,83.30
2018-02-14T07:34:55.187Z,83.00
2018-02-14T07:37:21.377Z,82.90
2018-02-14T08:19:14.903Z,68.80
2018-02-14T08:21:41.099Z,66.50
2018-02-14T08:24:07.251Z,65.10
2018-02-14T08:26:33.455Z,61.90
2018-02-14T08:28:59.607Z,62.50
2018-02-14T08:31:25.771Z,60.60
2018-02-14T08:33:51.960Z,61.40
2018-02-14T08:36:18.168Z,59.80
2018-02-14T08:38:45.098Z,59.20
2018-02-14T08:41:12.054Z,60.00
2018-02-14T08:43:38.231Z,59.80
2018-02-14T08:46:04.403Z,59.20
2018-02-14T09:23:01.788Z,52.60
2018-02-14T09:25:29.411Z,51.60
2018-02-14T09:27:55.599Z,51.30
2018-02-14T09:30:22.128Z,51.60
2018-02-14T09:32:48.294Z,55.30
2018-02-14T09:35:14.502Z,63.10
2018-02-14T09:37:42.446Z,46.90
2018-02-14T09:40:08.612Z,63.90
2018-02-14T09:42:35.918Z,63.60
2018-02-14T09:49:57.923Z,57.10
2018-02-14T10:14:35.692Z,46.20
2018-02-14T10:17:01.896Z,46.60
2018-02-14T10:19:28.807Z,47.50
2018-02-14T10:21:55.740Z,46.70
2018-02-14T10:24:22.708Z,47.70
2018-02-14T10:26:48.883Z,46.70
2018-02-14T10:29:15.088Z,58.20
2018-02-14T10:31:41.260Z,58.50
2018-02-14T10:34:07.449Z,44.50
2018-02-14T10:36:33.640Z,43.60
2018-02-14T10:39:00.087Z,44.00
2018-02-14T10:41:26.264Z,44.50
2018-02-14T10:48:49.048Z,43.60
2018-02-14T10:51:15.243Z,43.30
2018-02-14T10:53:41.411Z,43.50
2018-02-14T10:56:07.581Z,42.10
2018-02-14T10:58:34.598Z,40.90
2018-02-14T11:06:09.365Z,42.90
2018-02-14T11:08:35.540Z,43.30
2018-02-14T11:11:02.495Z,40.30
2018-02-14T11:13:30.155Z,53.00
2018-02-14T11:25:49.746Z,53.80
2018-02-14T11:28:15.932Z,37.40
2018-02-14T11:30:42.123Z,45.40
2018-02-14T11:33:08.300Z,36.80
2018-02-14T12:05:11.527Z,51.90
2018-02-14T12:07:37.687Z,34.60
2018-02-14T12:10:03.876Z,34.50
2018-02-14T13:47:42.272Z,39.90
2018-02-14T13:50:08.449Z,39.50
2018-02-14T13:52:34.620Z,39.90
2018-02-14T13:55:00.829Z,40.30
2018-02-14T13:57:27.724Z,40.60
2018-02-14T13:59:53.923Z,40.60
2018-02-14T14:02:20.165Z,40.40
2018-02-14T14:04:46.449Z,41.00
2018-02-14T14:07:12.619Z,40.80
2018-02-14T14:09:38.823Z,41.80
2018-02-14T14:12:05.028Z,42.00
2018-02-14T14:14:31.203Z,41.10
2018-02-14T14:16:58.099Z,41.60
2018-02-14T14:19:24.255Z,41.50
2018-02-14T14:21:50.477Z,41.80
2018-02-14T14:24:16.642Z,41.80
2018-02-14T14:26:42.816Z,41.60
2018-02-14T14:29:09.171Z,42.30
2018-02-14T14:31:35.333Z,42.30
2018-02-14T14:34:01.512Z,42.20
2018-02-14T14:36:28.450Z,42.00
2018-02-14T14:38:55.397Z,42.70
2018-02-14T14:41:21.601Z,42.60
2018-02-14T14:43:47.764Z,42.30
2018-02-14T14:46:14.205Z,42.30
2018-02-14T14:48:41.237Z,43.40
2018-02-14T14:51:08.193Z,43.00
2018-02-14T14:53:35.120Z,43.60
2018-02-14T14:56:01.324Z,43.10
2018-02-14T14:58:27.540Z,43.00
2018-02-14T15:00:53.771Z,43.50
2018-02-14T15:03:20.697Z,43.90
2018-02-14T15:05:48.368Z,43.70
2018-02-14T15:08:14.527Z,44.20
2018-02-14T15:10:40.704Z,44.00
2018-02-14T15:13:06.860Z,43.60
2018-02-14T15:15:33.318Z,44.20
2018-02-14T15:17:59.496Z,44.00
2018-02-14T15:20:26.833Z,43.50
2018-02-14T15:22:57.232Z,44.20
2018-02-14T15:25:24.180Z,43.90
2018-02-14T15:27:50.363Z,43.80
2018-02-14T15:30:16.799Z,43.60
2018-02-14T15:32:42.951Z,43.40
2018-02-14T15:35:09.104Z,43.40
2018-02-14T15:37:35.278Z,43.70
2018-02-14T15:40:01.455Z,43.60
2018-02-14T15:42:27.668Z,43.90
2018-02-14T15:44:53.859Z,44.20
2018-02-14T15:47:20.275Z,44.10
2018-02-14T15:49:46.448Z,44.30
2018-02-14T15:52:12.951Z,44.30
2018-02-14T15:54:39.156Z,44.60
2018-02-14T15:57:05.325Z,44.70
2018-02-14T15:59:31.513Z,45.00
2018-02-14T16:01:57.679Z,45.10
2018-02-14T16:04:24.224Z,45.30
2018-02-14T16:06:50.408Z,45.10
2018-02-14T16:09:16.580Z,45.70
2018-02-14T16:11:42.803Z,45.50
2018-02-14T16:14:08.968Z,45.70
2018-02-14T16:16:35.168Z,45.70
2018-02-14T16:19:02.869Z,46.30
2018-02-14T16:21:29.823Z,46.30
2018-02-14T16:23:55.997Z,46.20
2018-02-14T16:26:22.518Z,46.40
2018-02-14T16:28:48.774Z,46.80
2018-02-14T16:31:14.947Z,47.20
2018-02-14T16:33:41.155Z,47.40
2018-02-14T16:36:07.327Z,48.00
2018-02-14T16:38:34.259Z,48.50
2018-02-14T16:41:00.588Z,48.40
2018-02-14T16:43:26.764Z,49.00
2018-02-14T16:45:53.686Z,49.70
2018-02-14T16:48:21.371Z,50.30
2018-02-14T16:50:48.291Z,50.00
2018-02-14T16:53:14.465Z,50.20
2018-02-14T16:55:41.382Z,50.80
2018-02-14T16:58:07.544Z,50.80
2018-02-14T17:00:34.457Z,51.10
2018-02-14T17:03:00.627Z,51.10
2018-02-14T17:05:27.569Z,51.40
2018-02-14T17:07:54.564Z,51.60
2018-02-14T17:10:20.762Z,51.60
2018-02-14T17:12:46.936Z,52.00
2018-02-14T17:15:13.160Z,51.90
2018-02-14T17:17:39.323Z,52.30
2018-02-14T17:20:05.500Z,52.10
2018-02-14T17:22:32.484Z,52.10
2018-02-14T17:24:58.675Z,52.00
2018-02-14T17:27:24.855Z,52.10
2018-02-14T17:29:51.039Z,52.80
2018-02-14T17:32:17.979Z,52.40
2018-02-14T17:34:44.168Z,52.30
2018-02-14T17:37:10.532Z,52.30
2018-02-14T17:39:36.698Z,52.60
2018-02-14T17:42:03.617Z,52.60
2018-02-14T17:44:29.955Z,52.60
2018-02-14T17:46:56.180Z,52.70
2018-02-14T17:49:22.384Z,52.60
2018-02-14T17:51:48.960Z,52.60
2018-02-14T17:54:15.158Z,52.70
2018-02-14T17:56:41.337Z,52.50
2018-02-14T17:59:07.772Z,53.10
2018-02-14T18:01:33.944Z,53.00
2018-02-14T18:04:00.857Z,53.40
2018-02-14T18:06:27.047Z,53.30
2018-02-14T18:08:54.012Z,53.50
2018-02-14T18:11:20.480Z,53.50
2018-02-14T18:13:46.688Z,53.60
2018-02-14T18:16:12.861Z,54.10
2018-02-14T18:18:39.047Z,54.00
2018-02-14T18:21:06.590Z,53.60
2018-02-14T18:23:33.540Z,54.20
2018-02-14T18:26:02.865Z,54.00
2018-02-14T18:28:39.975Z,54.00
2018-02-14T18:31:06.167Z,54.10
2018-02-14T18:33:33.107Z,54.90
2018-02-14T18:35:59.522Z,54.80
2018-02-14T18:38:25.719Z,55.40
2018-02-14T18:40:51.901Z,56.40
2018-02-14T18:43:18.092Z,56.30
2018-02-14T18:45:44.297Z,56.70
2018-02-14T18:48:11.256Z,57.40
2018-02-14T18:50:37.828Z,57.40
2018-02-14T18:53:04.036Z,57.70
2018-02-14T18:55:30.208Z,57.90
2018-02-14T18:58:00.464Z,58.10
2018-02-14T19:00:31.792Z,59.00
2018-02-14T19:02:57.975Z,59.00
2018-02-14T19:05:24.196Z,58.90
2018-02-14T19:07:51.123Z,59.40
2018-02-14T19:10:18.767Z,59.50
2018-02-14T19:12:44.977Z,59.50
2018-02-14T19:15:11.196Z,59.60
2018-02-14T19:17:37.771Z,59.70
2018-02-14T19:20:03.957Z,60.00
2018-02-14T19:22:30.855Z,60.60
2018-02-14T19:24:57.292Z,60.40
2018-02-14T19:27:23.503Z,60.60
2018-02-14T19:29:49.677Z,60.60
2018-02-14T19:32:15.883Z,60.70
2018-02-14T19:34:42.052Z,60.70
2018-02-14T19:37:08.976Z,60.60
2018-02-14T19:39:35.978Z,60.50
2018-02-14T19:42:03.054Z,60.70
2018-02-14T19:44:29.336Z,60.70
2018-02-14T19:46:55.536Z,60.50
2018-02-14T19:49:21.727Z,60.70
2018-02-14T19:51:48.176Z,60.90
2018-02-14T19:54:15.111Z,61.40
2018-02-14T19:56:41.284Z,60.70
2018-02-14T19:59:07.467Z,60.80
2018-02-14T20:01:33.854Z,60.70
2018-02-14T20:04:00.043Z,61.00
2018-02-14T20:06:26.252Z,61.00
2018-02-14T20:08:52.788Z,61.90
2018-02-14T20:11:18.986Z,61.20
2018-02-14T20:13:45.148Z,61.30
2018-02-14T20:16:11.336Z,61.70
2018-02-14T20:18:37.503Z,61.80
2018-02-14T20:21:03.678Z,61.60
2018-02-14T20:23:29.991Z,61.80
2018-02-14T20:25:56.252Z,62.00
2018-02-14T20:28:24.200Z,62.10
2018-02-14T20:30:51.051Z,62.00
2018-02-14T20:33:17.223Z,62.20
2018-02-14T20:35:43.475Z,62.10
2018-02-14T20:38:10.676Z,62.30
2018-02-14T20:40:36.872Z,62.30
2018-02-14T20:43:03.831Z,62.60
2018-02-14T20:45:30.028Z,62.40
2018-02-14T20:47:57.081Z,62.60
2018-02-14T20:50:24.843Z,62.70
2018-02-14T20:52:51.812Z,62.80
2018-02-14T20:55:18.756Z,62.90
2018-02-14T20:57:44.988Z,62.80
2018-02-14T21:00:11.388Z,62.90
2018-02-14T21:02:37.562Z,62.40
2018-02-14T21:05:03.770Z,62.50
2018-02-14T21:07:30.731Z,62.20
2018-02-14T21:09:56.948Z,62.20
2018-02-14T21:12:23.151Z,61.80
2018-02-14T21:14:49.347Z,61.90
2018-02-14T21:17:15.538Z,61.80
2018-02-14T21:19:41.728Z,61.90
2018-02-14T21:22:08.652Z,61.70
2018-02-14T21:24:34.821Z,61.70
2018-02-14T21:27:01.738Z,61.70
2018-02-14T21:29:27.940Z,61.70
2018-02-14T21:32:03.336Z,61.70
2018-02-14T21:34:29.732Z,61.70
2018-02-14T21:36:55.979Z,61.80
2018-02-14T21:39:22.506Z,61.60
2018-02-14T21:41:49.456Z,62.00
2018-02-14T21:44:15.656Z,61.90
2018-02-14T21:46:41.839Z,62.00
2018-02-14T21:49:07.995Z,62.00
2018-02-14T21:51:34.932Z,62.10
2018-02-14T21:54:01.304Z,62.10
2018-02-14T21:56:28.240Z,62.30
2018-02-14T21:58:55.168Z,62.40
2018-02-14T22:01:21.607Z,62.40
2018-02-14T22:03:47.795Z,62.70
2018-02-14T22:06:13.997Z,62.70
2018-02-14T22:08:40.927Z,62.70
2018-02-14T22:11:07.090Z,62.70
2018-02-14T22:13:34.071Z,62.40
2018-02-14T22:16:00.273Z,62.40
2018-02-14T22:18:26.491Z,62.40
2018-02-14T22:20:52.659Z,62.50
2018-02-14T22:23:18.843Z,62.40
2018-02-14T22:25:45.039Z,62.60
2018-02-14T22:28:11.222Z,62.60
2018-02-14T22:30:37.422Z,62.80
2018-02-14T22:33:03.601Z,62.70
2018-02-14T22:35:29.763Z,62.60
2018-02-14T22:37:55.960Z,62.70
2018-02-14T22:40:22.139Z,62.70
2018-02-14T22:42:48.281Z,63.00
2018-02-14T22:45:14.464Z,62.90
2018-02-14T22:47:40.648Z,63.00
2018-02-14T22:50:06.817Z,64.00
2018-02-14T22:52:33.011Z,63.70
2018-02-14T22:54:59.627Z,63.70
2018-02-14T22:57:25.814Z,63.80
2018-02-14T22:59:52.759Z,64.50
2018-02-14T23:02:18.978Z,64.50
2018-02-14T23:04:45.179Z,64.60
2018-02-14T23:07:12.112Z,65.00
2018-02-14T23:09:38.272Z,64.90
2018-02-14T23:12:04.492Z,64.80
2018-02-14T23:14:31.415Z,65.00
2018-02-14T23:16:57.592Z,65.00
2018-02-14T23:19:23.780Z,65.80
2018-02-14T23:21:50.734Z,65.30
2018-02-14T23:24:16.915Z,65.30
2018-02-14T23:26:43.079Z,65.40
2018-02-14T23:29:09.295Z,65.30
2018-02-14T23:31:35.471Z,65.10
2018-02-14T23:34:01.645Z,65.20
2018-02-14T23:36:27.811Z,64.90
2018-02-14T23:38:54.045Z,64.80
2018-02-14T23:41:20.215Z,64.30
2018-02-14T23:43:46.371Z,64.40
2018-02-14T23:46:13.287Z,64.40
2018-02-14T23:48:39.464Z,64.30
2018-02-14T23:51:05.674Z,63.90
2018-02-14T23:53:32.771Z,64.00
2018-02-14T23:55:59.274Z,64.00
2018-02-14T23:58:26.188Z,63.80
